sensor_id;sensor_type;location;lat;lon;timestamp;temperature;humidity
78541;SHT31;67835;51.968;5.646;2023-06-04T00:00:53;16.6;45.4
78541;SHT31;67835;51.968;5.646;2023-06-04T00:03:21;16.6;45.6
78541;SHT31;67835;51.968;5.646;2023-06-04T00:05:50;16.6;45.7
78541;SHT31;67835;51.968;5.646;2023-06-04T00:08:18;16.5;45.7
78541;SHT31;67835;51.968;5.646;2023-06-04T00:10:47;16.5;45.9
78541;SHT31;67835;51.968;5.646;2023-06-04T00:13:17;16.5;45.9
78541;SHT31;67835;51.968;5.646;2023-06-04T00:15:46;16.4;45.9
78541;SHT31;67835;51.968;5.646;2023-06-04T00:18:14;16.4;45.9
78541;SHT31;67835;51.968;5.646;2023-06-04T00:20:43;16.4;45.8
78541;SHT31;67835;51.968;5.646;2023-06-04T00:23:11;16.3;45.9
78541;SHT31;67835;51.968;5.646;2023-06-04T00:25:42;16.3;45.9
78541;SHT31;67835;51.968;5.646;2023-06-04T00:28:10;16.3;45.8
78541;SHT31;67835;51.968;5.646;2023-06-04T00:30:39;16.2;46.1
78541;SHT31;67835;51.968;5.646;2023-06-04T00:33:07;16.2;46.0
78541;SHT31;67835;51.968;5.646;2023-06-04T00:35:36;16.1;46.0
78541;SHT31;67835;51.968;5.646;2023-06-04T00:38:04;16.1;45.9
78541;SHT31;67835;51.968;5.646;2023-06-04T00:40:32;16.1;46.2
78541;SHT31;67835;51.968;5.646;2023-06-04T00:43:01;16.0;46.1
78541;SHT31;67835;51.968;5.646;2023-06-04T00:45:29;16.0;46.1
78541;SHT31;67835;51.968;5.646;2023-06-04T00:47:58;16.0;46.0
78541;SHT31;67835;51.968;5.646;2023-06-04T00:50:27;15.9;46.1
78541;SHT31;67835;51.968;5.646;2023-06-04T00:52:58;15.9;46.1
78541;SHT31;67835;51.968;5.646;2023-06-04T00:55:27;15.9;46.2
78541;SHT31;67835;51.968;5.646;2023-06-04T00:57:58;15.8;46.2
78541;SHT31;67835;51.968;5.646;2023-06-04T01:00:27;15.8;46.3
78541;SHT31;67835;51.968;5.646;2023-06-04T01:02:58;15.8;46.4
78541;SHT31;67835;51.968;5.646;2023-06-04T01:05:38;15.7;46.4
78541;SHT31;67835;51.968;5.646;2023-06-04T01:08:10;15.7;46.3
78541;SHT31;67835;51.968;5.646;2023-06-04T01:10:52;15.7;46.4
78541;SHT31;67835;51.968;5.646;2023-06-04T01:13:22;15.6;46.5
78541;SHT31;67835;51.968;5.646;2023-06-04T01:15:51;15.6;46.8
78541;SHT31;67835;51.968;5.646;2023-06-04T01:18:25;15.6;46.6
78541;SHT31;67835;51.968;5.646;2023-06-04T01:20:58;15.6;46.7
78541;SHT31;67835;51.968;5.646;2023-06-04T01:23:33;15.5;46.9
78541;SHT31;67835;51.968;5.646;2023-06-04T01:26:04;15.5;46.8
78541;SHT31;67835;51.968;5.646;2023-06-04T01:28:34;15.5;46.8
78541;SHT31;67835;51.968;5.646;2023-06-04T01:31:04;15.4;47.0
78541;SHT31;67835;51.968;5.646;2023-06-04T01:33:34;15.4;47.1
78541;SHT31;67835;51.968;5.646;2023-06-04T01:36:03;15.4;47.0
78541;SHT31;67835;51.968;5.646;2023-06-04T01:38:34;15.4;46.8
78541;SHT31;67835;51.968;5.646;2023-06-04T01:41:03;15.3;46.9
78541;SHT31;67835;51.968;5.646;2023-06-04T01:43:33;15.3;47.0
78541;SHT31;67835;51.968;5.646;2023-06-04T01:46:02;15.3;47.2
78541;SHT31;67835;51.968;5.646;2023-06-04T01:48:30;15.3;47.1
78541;SHT31;67835;51.968;5.646;2023-06-04T01:51:00;15.2;47.1
78541;SHT31;67835;51.968;5.646;2023-06-04T01:53:29;15.2;47.2
78541;SHT31;67835;51.968;5.646;2023-06-04T01:56:00;15.2;47.3
78541;SHT31;67835;51.968;5.646;2023-06-04T01:58:28;15.1;47.4
78541;SHT31;67835;51.968;5.646;2023-06-04T02:00:58;15.1;47.8
78541;SHT31;67835;51.968;5.646;2023-06-04T02:03:29;15.1;47.5
78541;SHT31;67835;51.968;5.646;2023-06-04T02:06:03;15.1;47.5
78541;SHT31;67835;51.968;5.646;2023-06-04T02:08:33;15.0;47.7
78541;SHT31;67835;51.968;5.646;2023-06-04T02:11:02;15.0;47.7
78541;SHT31;67835;51.968;5.646;2023-06-04T02:13:31;15.0;47.8
78541;SHT31;67835;51.968;5.646;2023-06-04T02:15:59;14.9;47.7
78541;SHT31;67835;51.968;5.646;2023-06-04T02:18:27;14.9;47.9
78541;SHT31;67835;51.968;5.646;2023-06-04T02:20:57;14.9;48.0
78541;SHT31;67835;51.968;5.646;2023-06-04T02:23:26;14.9;48.0
78541;SHT31;67835;51.968;5.646;2023-06-04T02:25:56;14.8;47.8
78541;SHT31;67835;51.968;5.646;2023-06-04T02:28:25;14.8;48.0
78541;SHT31;67835;51.968;5.646;2023-06-04T02:30:55;14.8;48.0
78541;SHT31;67835;51.968;5.646;2023-06-04T02:33:25;14.7;48.3
78541;SHT31;67835;51.968;5.646;2023-06-04T02:35:54;14.7;48.0
78541;SHT31;67835;51.968;5.646;2023-06-04T02:38:23;14.7;48.3
78541;SHT31;67835;51.968;5.646;2023-06-04T02:40:52;14.7;48.4
78541;SHT31;67835;51.968;5.646;2023-06-04T02:43:20;14.6;48.2
78541;SHT31;67835;51.968;5.646;2023-06-04T02:45:49;14.6;48.5
78541;SHT31;67835;51.968;5.646;2023-06-04T02:48:17;14.6;48.6
78541;SHT31;67835;51.968;5.646;2023-06-04T02:50:46;14.6;48.5
78541;SHT31;67835;51.968;5.646;2023-06-04T02:53:14;14.5;48.3
78541;SHT31;67835;51.968;5.646;2023-06-04T02:55:43;14.5;48.9
78541;SHT31;67835;51.968;5.646;2023-06-04T02:58:11;14.5;48.5
78541;SHT31;67835;51.968;5.646;2023-06-04T03:00:41;14.4;48.6
78541;SHT31;67835;51.968;5.646;2023-06-04T03:03:11;14.4;48.8
78541;SHT31;67835;51.968;5.646;2023-06-04T03:05:39;14.4;48.8
78541;SHT31;67835;51.968;5.646;2023-06-04T03:08:09;14.4;49.3
78541;SHT31;67835;51.968;5.646;2023-06-04T03:10:39;14.3;49.1
78541;SHT31;67835;51.968;5.646;2023-06-04T03:13:08;14.3;49.1
78541;SHT31;67835;51.968;5.646;2023-06-04T03:15:36;14.3;49.3
78541;SHT31;67835;51.968;5.646;2023-06-04T03:18:05;14.3;49.7
78541;SHT31;67835;51.968;5.646;2023-06-04T03:20:33;14.2;49.4
78541;SHT31;67835;51.968;5.646;2023-06-04T03:23:04;14.2;49.7
78541;SHT31;67835;51.968;5.646;2023-06-04T03:25:32;14.2;49.8
78541;SHT31;67835;51.968;5.646;2023-06-04T03:28:01;14.1;50.0
78541;SHT31;67835;51.968;5.646;2023-06-04T03:30:30;14.1;50.0
78541;SHT31;67835;51.968;5.646;2023-06-04T03:32:58;14.1;50.5
78541;SHT31;67835;51.968;5.646;2023-06-04T03:35:26;14.1;50.0
78541;SHT31;67835;51.968;5.646;2023-06-04T03:37:55;14.0;50.4
78541;SHT31;67835;51.968;5.646;2023-06-04T03:40:23;14.0;50.4
78541;SHT31;67835;51.968;5.646;2023-06-04T03:42:52;14.0;50.4
78541;SHT31;67835;51.968;5.646;2023-06-04T03:45:22;14.0;50.8
78541;SHT31;67835;51.968;5.646;2023-06-04T03:47:51;14.0;51.1
78541;SHT31;67835;51.968;5.646;2023-06-04T03:50:20;13.9;51.4
78541;SHT31;67835;51.968;5.646;2023-06-04T03:52:49;13.9;51.0
78541;SHT31;67835;51.968;5.646;2023-06-04T03:55:17;13.9;51.2
78541;SHT31;67835;51.968;5.646;2023-06-04T03:57:46;13.9;51.3
78541;SHT31;67835;51.968;5.646;2023-06-04T04:00:15;13.9;51.1
78541;SHT31;67835;51.968;5.646;2023-06-04T04:02:44;13.9;51.3
78541;SHT31;67835;51.968;5.646;2023-06-04T04:05:12;13.8;51.2
78541;SHT31;67835;51.968;5.646;2023-06-04T04:07:41;13.8;51.5
78541;SHT31;67835;51.968;5.646;2023-06-04T04:10:10;13.8;51.8
78541;SHT31;67835;51.968;5.646;2023-06-04T04:12:38;13.8;52.0
78541;SHT31;67835;51.968;5.646;2023-06-04T04:15:10;13.8;52.3
78541;SHT31;67835;51.968;5.646;2023-06-04T04:17:38;13.8;52.5
78541;SHT31;67835;51.968;5.646;2023-06-04T04:20:08;13.8;52.6
78541;SHT31;67835;51.968;5.646;2023-06-04T04:22:39;13.8;52.3
78541;SHT31;67835;51.968;5.646;2023-06-04T04:25:09;13.8;52.3
78541;SHT31;67835;51.968;5.646;2023-06-04T04:27:37;13.8;52.4
78541;SHT31;67835;51.968;5.646;2023-06-04T04:30:08;13.9;52.3
78541;SHT31;67835;51.968;5.646;2023-06-04T04:32:38;13.9;52.5
78541;SHT31;67835;51.968;5.646;2023-06-04T04:35:14;13.9;53.4
78541;SHT31;67835;51.968;5.646;2023-06-04T04:37:45;13.9;53.4
78541;SHT31;67835;51.968;5.646;2023-06-04T04:40:14;13.9;52.7
78541;SHT31;67835;51.968;5.646;2023-06-04T04:42:43;13.9;53.1
78541;SHT31;67835;51.968;5.646;2023-06-04T04:45:14;13.9;53.3
78541;SHT31;67835;51.968;5.646;2023-06-04T04:47:43;13.9;53.0
78541;SHT31;67835;51.968;5.646;2023-06-04T04:50:13;13.9;53.1
78541;SHT31;67835;51.968;5.646;2023-06-04T04:52:42;14.0;53.1
78541;SHT31;67835;51.968;5.646;2023-06-04T04:55:10;14.0;53.2
78541;SHT31;67835;51.968;5.646;2023-06-04T04:57:39;14.0;53.4
78541;SHT31;67835;51.968;5.646;2023-06-04T05:00:11;14.1;53.3
78541;SHT31;67835;51.968;5.646;2023-06-04T05:02:41;14.1;53.3
78541;SHT31;67835;51.968;5.646;2023-06-04T05:05:10;14.1;53.4
78541;SHT31;67835;51.968;5.646;2023-06-04T05:07:39;14.2;53.5
78541;SHT31;67835;51.968;5.646;2023-06-04T05:10:08;14.2;53.4
78541;SHT31;67835;51.968;5.646;2023-06-04T05:12:37;14.2;53.3
78541;SHT31;67835;51.968;5.646;2023-06-04T05:15:07;14.3;53.3
78541;SHT31;67835;51.968;5.646;2023-06-04T05:17:39;14.3;53.6
78541;SHT31;67835;51.968;5.646;2023-06-04T05:20:08;14.4;53.4
78541;SHT31;67835;51.968;5.646;2023-06-04T05:22:38;14.5;53.5
78541;SHT31;67835;51.968;5.646;2023-06-04T05:25:07;14.5;53.5
78541;SHT31;67835;51.968;5.646;2023-06-04T05:27:39;14.6;53.7
78541;SHT31;67835;51.968;5.646;2023-06-04T05:30:09;14.6;53.3
78541;SHT31;67835;51.968;5.646;2023-06-04T05:32:38;14.7;53.4
78541;SHT31;67835;51.968;5.646;2023-06-04T05:35:08;14.8;53.6
78541;SHT31;67835;51.968;5.646;2023-06-04T05:37:38;14.9;53.2
78541;SHT31;67835;51.968;5.646;2023-06-04T05:40:09;14.9;53.2
78541;SHT31;67835;51.968;5.646;2023-06-04T05:42:39;15.0;52.7
78541;SHT31;67835;51.968;5.646;2023-06-04T05:45:08;15.1;52.7
78541;SHT31;67835;51.968;5.646;2023-06-04T05:47:36;15.2;52.7
78541;SHT31;67835;51.968;5.646;2023-06-04T05:50:06;15.2;52.9
78541;SHT31;67835;51.968;5.646;2023-06-04T05:52:37;15.3;52.9
78541;SHT31;67835;51.968;5.646;2023-06-04T05:55:07;15.4;53.0
78541;SHT31;67835;51.968;5.646;2023-06-04T05:57:36;15.6;52.9
78541;SHT31;67835;51.968;5.646;2023-06-04T06:00:06;15.7;53.8
78541;SHT31;67835;51.968;5.646;2023-06-04T06:02:37;15.8;52.8
78541;SHT31;67835;51.968;5.646;2023-06-04T06:05:07;15.9;52.0
78541;SHT31;67835;51.968;5.646;2023-06-04T06:07:36;16.0;51.7
78541;SHT31;67835;51.968;5.646;2023-06-04T06:10:09;16.1;51.8
78541;SHT31;67835;51.968;5.646;2023-06-04T06:12:37;16.3;51.7
78541;SHT31;67835;51.968;5.646;2023-06-04T06:15:07;16.4;51.4
78541;SHT31;67835;51.968;5.646;2023-06-04T06:17:38;16.5;51.7
78541;SHT31;67835;51.968;5.646;2023-06-04T06:20:07;16.7;51.6
78541;SHT31;67835;51.968;5.646;2023-06-04T06:22:36;16.9;51.2
78541;SHT31;67835;51.968;5.646;2023-06-04T06:25:05;17.0;50.6
78541;SHT31;67835;51.968;5.646;2023-06-04T06:27:34;17.2;49.5
78541;SHT31;67835;51.968;5.646;2023-06-04T06:30:05;17.3;49.7
78541;SHT31;67835;51.968;5.646;2023-06-04T06:32:34;17.5;49.9
78541;SHT31;67835;51.968;5.646;2023-06-04T06:35:04;17.7;49.6
78541;SHT31;67835;51.968;5.646;2023-06-04T06:37:34;17.9;48.5
78541;SHT31;67835;51.968;5.646;2023-06-04T06:40:09;18.2;47.8
78541;SHT31;67835;51.968;5.646;2023-06-04T06:42:38;18.5;46.6
78541;SHT31;67835;51.968;5.646;2023-06-04T06:45:07;18.9;46.0
78541;SHT31;67835;51.968;5.646;2023-06-04T06:47:36;19.3;45.9
78541;SHT31;67835;51.968;5.646;2023-06-04T06:50:06;19.8;43.3
78541;SHT31;67835;51.968;5.646;2023-06-04T06:52:34;20.4;42.7
78541;SHT31;67835;51.968;5.646;2023-06-04T06:55:04;20.9;41.4
78541;SHT31;67835;51.968;5.646;2023-06-04T06:57:33;21.4;40.7
78541;SHT31;67835;51.968;5.646;2023-06-04T07:00:02;21.9;38.9
78541;SHT31;67835;51.968;5.646;2023-06-04T07:02:32;22.4;37.1
78541;SHT31;67835;51.968;5.646;2023-06-04T07:05:03;22.7;36.0
78541;SHT31;67835;51.968;5.646;2023-06-04T07:07:32;23.0;36.3
78541;SHT31;67835;51.968;5.646;2023-06-04T07:10:02;23.3;34.9
78541;SHT31;67835;51.968;5.646;2023-06-04T07:12:31;23.6;35.8
78541;SHT31;67835;51.968;5.646;2023-06-04T07:14:59;23.8;35.2
78541;SHT31;67835;51.968;5.646;2023-06-04T07:17:28;24.1;34.7
78541;SHT31;67835;51.968;5.646;2023-06-04T07:19:59;24.4;32.3
78541;SHT31;67835;51.968;5.646;2023-06-04T07:22:30;24.8;33.0
78541;SHT31;67835;51.968;5.646;2023-06-04T07:24:59;25.1;32.0
78541;SHT31;67835;51.968;5.646;2023-06-04T07:27:27;25.5;31.9
78541;SHT31;67835;51.968;5.646;2023-06-04T07:29:56;25.8;30.8
78541;SHT31;67835;51.968;5.646;2023-06-04T07:32:24;26.1;29.6
78541;SHT31;67835;51.968;5.646;2023-06-04T07:34:52;26.3;30.8
78541;SHT31;67835;51.968;5.646;2023-06-04T07:37:21;26.5;29.8
78541;SHT31;67835;51.968;5.646;2023-06-04T07:39:49;26.8;29.3
78541;SHT31;67835;51.968;5.646;2023-06-04T07:42:18;27.1;29.7
78541;SHT31;67835;51.968;5.646;2023-06-04T07:44:46;27.3;30.5
78541;SHT31;67835;51.968;5.646;2023-06-04T07:47:15;27.6;28.6
78541;SHT31;67835;51.968;5.646;2023-06-04T07:49:43;27.9;28.6
78541;SHT31;67835;51.968;5.646;2023-06-04T07:52:12;28.2;26.8
78541;SHT31;67835;51.968;5.646;2023-06-04T07:54:42;28.6;27.4
78541;SHT31;67835;51.968;5.646;2023-06-04T07:57:10;28.9;27.0
78541;SHT31;67835;51.968;5.646;2023-06-04T07:59:38;29.1;26.0
78541;SHT31;67835;51.968;5.646;2023-06-04T08:02:09;29.4;25.5
78541;SHT31;67835;51.968;5.646;2023-06-04T08:04:39;29.7;25.5
78541;SHT31;67835;51.968;5.646;2023-06-04T08:07:07;30.0;24.4
78541;SHT31;67835;51.968;5.646;2023-06-04T08:09:36;30.3;23.6
78541;SHT31;67835;51.968;5.646;2023-06-04T08:12:05;30.5;23.3
78541;SHT31;67835;51.968;5.646;2023-06-04T08:14:34;30.7;22.1
78541;SHT31;67835;51.968;5.646;2023-06-04T08:17:02;30.8;22.4
78541;SHT31;67835;51.968;5.646;2023-06-04T08:19:30;30.9;22.2
78541;SHT31;67835;51.968;5.646;2023-06-04T08:21:59;31.1;22.9
78541;SHT31;67835;51.968;5.646;2023-06-04T08:24:28;31.2;23.2
78541;SHT31;67835;51.968;5.646;2023-06-04T08:26:56;31.5;21.5
78541;SHT31;67835;51.968;5.646;2023-06-04T08:29:25;31.7;21.9
78541;SHT31;67835;51.968;5.646;2023-06-04T08:31:54;31.9;22.1
78541;SHT31;67835;51.968;5.646;2023-06-04T08:34:22;32.2;22.6
78541;SHT31;67835;51.968;5.646;2023-06-04T08:36:51;32.5;20.4
78541;SHT31;67835;51.968;5.646;2023-06-04T08:39:20;32.7;21.0
78541;SHT31;67835;51.968;5.646;2023-06-04T08:41:52;32.9;20.7
78541;SHT31;67835;51.968;5.646;2023-06-04T08:44:21;33.1;21.1
78541;SHT31;67835;51.968;5.646;2023-06-04T08:46:52;33.3;21.1
78541;SHT31;67835;51.968;5.646;2023-06-04T08:49:22;33.5;19.5
78541;SHT31;67835;51.968;5.646;2023-06-04T08:51:52;33.7;19.3
78541;SHT31;67835;51.968;5.646;2023-06-04T08:54:21;33.9;19.4
78541;SHT31;67835;51.968;5.646;2023-06-04T08:56:50;34.1;20.1
78541;SHT31;67835;51.968;5.646;2023-06-04T08:59:21;34.3;19.5
78541;SHT31;67835;51.968;5.646;2023-06-04T09:01:51;34.6;19.1
78541;SHT31;67835;51.968;5.646;2023-06-04T09:04:21;34.8;19.4
78541;SHT31;67835;51.968;5.646;2023-06-04T09:06:52;35.0;18.9
78541;SHT31;67835;51.968;5.646;2023-06-04T09:09:23;35.3;18.3
78541;SHT31;67835;51.968;5.646;2023-06-04T09:11:57;35.5;17.7
78541;SHT31;67835;51.968;5.646;2023-06-04T09:14:27;35.6;18.3
78541;SHT31;67835;51.968;5.646;2023-06-04T09:16:56;35.8;18.1
78541;SHT31;67835;51.968;5.646;2023-06-04T09:19:26;36.0;18.3
78541;SHT31;67835;51.968;5.646;2023-06-04T09:21:56;36.1;17.8
78541;SHT31;67835;51.968;5.646;2023-06-04T09:24:42;36.3;18.0
78541;SHT31;67835;51.968;5.646;2023-06-04T09:27:14;36.4;17.0
78541;SHT31;67835;51.968;5.646;2023-06-04T09:29:51;36.6;16.1
78541;SHT31;67835;51.968;5.646;2023-06-04T09:32:24;36.7;16.2
78541;SHT31;67835;51.968;5.646;2023-06-04T09:34:53;36.7;16.2
78541;SHT31;67835;51.968;5.646;2023-06-04T09:37:23;36.8;15.9
78541;SHT31;67835;51.968;5.646;2023-06-04T09:39:57;36.9;16.2
78541;SHT31;67835;51.968;5.646;2023-06-04T09:42:26;36.9;16.0
78541;SHT31;67835;51.968;5.646;2023-06-04T09:44:55;37.0;16.2
78541;SHT31;67835;51.968;5.646;2023-06-04T09:47:25;37.0;14.9
78541;SHT31;67835;51.968;5.646;2023-06-04T09:49:58;37.1;15.0
78541;SHT31;67835;51.968;5.646;2023-06-04T09:52:34;37.1;15.0
78541;SHT31;67835;51.968;5.646;2023-06-04T09:55:17;37.1;16.1
78541;SHT31;67835;51.968;5.646;2023-06-04T09:57:50;37.2;16.4
78541;SHT31;67835;51.968;5.646;2023-06-04T10:00:21;37.3;15.4
78541;SHT31;67835;51.968;5.646;2023-06-04T10:02:58;37.4;14.9
78541;SHT31;67835;51.968;5.646;2023-06-04T10:05:32;37.5;15.6
78541;SHT31;67835;51.968;5.646;2023-06-04T10:08:03;37.6;15.1
78541;SHT31;67835;51.968;5.646;2023-06-04T10:10:36;37.7;15.9
78541;SHT31;67835;51.968;5.646;2023-06-04T10:13:12;37.9;14.8
78541;SHT31;67835;51.968;5.646;2023-06-04T10:15:43;38.1;15.3
78541;SHT31;67835;51.968;5.646;2023-06-04T10:18:13;38.2;14.7
78541;SHT31;67835;51.968;5.646;2023-06-04T10:20:42;38.3;14.6
78541;SHT31;67835;51.968;5.646;2023-06-04T10:23:13;38.4;14.4
78541;SHT31;67835;51.968;5.646;2023-06-04T10:25:45;38.5;13.6
78541;SHT31;67835;51.968;5.646;2023-06-04T10:28:15;38.5;13.9
78541;SHT31;67835;51.968;5.646;2023-06-04T10:30:47;38.5;13.3
78541;SHT31;67835;51.968;5.646;2023-06-04T10:33:17;38.5;15.1
78541;SHT31;67835;51.968;5.646;2023-06-04T10:35:53;38.5;14.5
78541;SHT31;67835;51.968;5.646;2023-06-04T10:38:23;38.5;13.8
78541;SHT31;67835;51.968;5.646;2023-06-04T10:40:53;38.5;13.8
78541;SHT31;67835;51.968;5.646;2023-06-04T10:43:21;38.5;15.1
78541;SHT31;67835;51.968;5.646;2023-06-04T10:45:50;38.5;14.3
78541;SHT31;67835;51.968;5.646;2023-06-04T10:48:18;38.5;15.4
78541;SHT31;67835;51.968;5.646;2023-06-04T10:50:51;38.5;16.1
78541;SHT31;67835;51.968;5.646;2023-06-04T10:53:20;38.6;14.7
78541;SHT31;67835;51.968;5.646;2023-06-04T10:55:52;38.6;14.1
78541;SHT31;67835;51.968;5.646;2023-06-04T10:58:33;38.6;14.7
78541;SHT31;67835;51.968;5.646;2023-06-04T11:01:02;38.6;14.4
78541;SHT31;67835;51.968;5.646;2023-06-04T11:03:37;38.6;14.9
78541;SHT31;67835;51.968;5.646;2023-06-04T11:06:18;38.5;15.2
78541;SHT31;67835;51.968;5.646;2023-06-04T11:08:48;38.5;14.4
78541;SHT31;67835;51.968;5.646;2023-06-04T11:11:17;38.5;14.6
78541;SHT31;67835;51.968;5.646;2023-06-04T11:13:46;38.4;15.1
78541;SHT31;67835;51.968;5.646;2023-06-04T11:16:19;38.4;15.7
78541;SHT31;67835;51.968;5.646;2023-06-04T11:18:56;38.3;16.1
78541;SHT31;67835;51.968;5.646;2023-06-04T11:21:25;38.3;15.9
78541;SHT31;67835;51.968;5.646;2023-06-04T11:23:57;38.3;15.2
78541;SHT31;67835;51.968;5.646;2023-06-04T11:26:31;38.3;14.9
78541;SHT31;67835;51.968;5.646;2023-06-04T11:29:05;38.2;14.9
78541;SHT31;67835;51.968;5.646;2023-06-04T11:31:42;38.1;14.1
78541;SHT31;67835;51.968;5.646;2023-06-04T11:34:24;37.9;15.3
78541;SHT31;67835;51.968;5.646;2023-06-04T11:36:54;37.8;15.4
78541;SHT31;67835;51.968;5.646;2023-06-04T11:39:33;37.7;16.5
78541;SHT31;67835;51.968;5.646;2023-06-04T11:41:56;37.5;15.0
78541;SHT31;67835;51.968;5.646;2023-06-04T11:44:25;37.4;15.7
78541;SHT31;67835;51.968;5.646;2023-06-04T11:46:55;37.3;15.4
78541;SHT31;67835;51.968;5.646;2023-06-04T11:49:23;37.0;16.0
78541;SHT31;67835;51.968;5.646;2023-06-04T11:51:53;36.9;15.8
78541;SHT31;67835;51.968;5.646;2023-06-04T11:54:24;36.7;16.6
78541;SHT31;67835;51.968;5.646;2023-06-04T11:56:54;36.6;16.5
78541;SHT31;67835;51.968;5.646;2023-06-04T11:59:23;36.5;16.8
78541;SHT31;67835;51.968;5.646;2023-06-04T12:01:54;36.3;16.8
78541;SHT31;67835;51.968;5.646;2023-06-04T12:04:23;36.2;16.4
78541;SHT31;67835;51.968;5.646;2023-06-04T12:06:54;36.1;16.7
78541;SHT31;67835;51.968;5.646;2023-06-04T12:09:25;35.9;16.3
78541;SHT31;67835;51.968;5.646;2023-06-04T12:12:00;35.7;16.6
78541;SHT31;67835;51.968;5.646;2023-06-04T12:14:30;35.6;17.8
78541;SHT31;67835;51.968;5.646;2023-06-04T12:17:00;35.5;17.2
78541;SHT31;67835;51.968;5.646;2023-06-04T12:19:29;35.4;16.4
78541;SHT31;67835;51.968;5.646;2023-06-04T12:22:02;35.3;17.0
78541;SHT31;67835;51.968;5.646;2023-06-04T12:24:32;35.2;16.5
78541;SHT31;67835;51.968;5.646;2023-06-04T12:27:04;35.1;18.0
78541;SHT31;67835;51.968;5.646;2023-06-04T12:29:35;35.0;18.7
78541;SHT31;67835;51.968;5.646;2023-06-04T12:32:06;34.9;18.4
78541;SHT31;67835;51.968;5.646;2023-06-04T12:34:37;34.9;18.0
78541;SHT31;67835;51.968;5.646;2023-06-04T12:37:07;34.8;18.3
78541;SHT31;67835;51.968;5.646;2023-06-04T12:39:36;34.8;17.2
78541;SHT31;67835;51.968;5.646;2023-06-04T12:42:07;34.8;17.5
78541;SHT31;67835;51.968;5.646;2023-06-04T12:44:39;34.7;18.5
78541;SHT31;67835;51.968;5.646;2023-06-04T12:47:08;34.6;17.5
78541;SHT31;67835;51.968;5.646;2023-06-04T12:49:38;34.5;18.2
78541;SHT31;67835;51.968;5.646;2023-06-04T12:52:06;34.5;19.6
78541;SHT31;67835;51.968;5.646;2023-06-04T12:54:35;34.5;18.3
78541;SHT31;67835;51.968;5.646;2023-06-04T12:57:04;34.4;18.8
78541;SHT31;67835;51.968;5.646;2023-06-04T12:59:32;34.4;18.2
78541;SHT31;67835;51.968;5.646;2023-06-04T13:02:01;34.4;18.8
78541;SHT31;67835;51.968;5.646;2023-06-04T13:04:30;34.4;18.1
78541;SHT31;67835;51.968;5.646;2023-06-04T13:06:58;34.4;18.8
78541;SHT31;67835;51.968;5.646;2023-06-04T13:09:27;34.4;18.9
78541;SHT31;67835;51.968;5.646;2023-06-04T13:11:57;34.4;18.5
78541;SHT31;67835;51.968;5.646;2023-06-04T13:14:25;34.4;19.2
78541;SHT31;67835;51.968;5.646;2023-06-04T13:16:55;34.4;19.0
78541;SHT31;67835;51.968;5.646;2023-06-04T13:19:26;34.4;19.6
78541;SHT31;67835;51.968;5.646;2023-06-04T13:21:54;34.4;19.5
78541;SHT31;67835;51.968;5.646;2023-06-04T13:24:23;34.5;18.8
78541;SHT31;67835;51.968;5.646;2023-06-04T13:26:52;34.5;18.4
78541;SHT31;67835;51.968;5.646;2023-06-04T13:29:22;34.5;19.1
78541;SHT31;67835;51.968;5.646;2023-06-04T13:31:51;34.5;19.2
78541;SHT31;67835;51.968;5.646;2023-06-04T13:34:19;34.5;20.1
78541;SHT31;67835;51.968;5.646;2023-06-04T13:36:48;34.5;19.2
78541;SHT31;67835;51.968;5.646;2023-06-04T13:39:18;34.5;18.6
78541;SHT31;67835;51.968;5.646;2023-06-04T13:41:47;34.5;19.0
78541;SHT31;67835;51.968;5.646;2023-06-04T13:44:15;34.4;18.6
78541;SHT31;67835;51.968;5.646;2023-06-04T13:46:43;34.4;19.5
78541;SHT31;67835;51.968;5.646;2023-06-04T13:49:14;34.3;18.8
78541;SHT31;67835;51.968;5.646;2023-06-04T13:51:42;34.2;19.6
78541;SHT31;67835;51.968;5.646;2023-06-04T13:54:11;34.2;19.0
78541;SHT31;67835;51.968;5.646;2023-06-04T13:56:39;34.1;19.4
78541;SHT31;67835;51.968;5.646;2023-06-04T13:59:08;34.1;19.3
78541;SHT31;67835;51.968;5.646;2023-06-04T14:01:36;34.1;18.9
78541;SHT31;67835;51.968;5.646;2023-06-04T14:04:05;34.0;19.1
78541;SHT31;67835;51.968;5.646;2023-06-04T14:06:34;34.0;19.5
78541;SHT31;67835;51.968;5.646;2023-06-04T14:09:04;34.0;19.0
78541;SHT31;67835;51.968;5.646;2023-06-04T14:11:38;33.9;19.0
78541;SHT31;67835;51.968;5.646;2023-06-04T14:14:06;33.9;19.7
78541;SHT31;67835;51.968;5.646;2023-06-04T14:16:36;33.9;20.3
78541;SHT31;67835;51.968;5.646;2023-06-04T14:19:04;33.9;20.3
78541;SHT31;67835;51.968;5.646;2023-06-04T14:21:36;33.9;19.9
78541;SHT31;67835;51.968;5.646;2023-06-04T14:24:05;33.9;18.9
78541;SHT31;67835;51.968;5.646;2023-06-04T14:26:34;33.9;18.7
78541;SHT31;67835;51.968;5.646;2023-06-04T14:29:03;33.9;19.0
78541;SHT31;67835;51.968;5.646;2023-06-04T14:31:33;33.8;19.2
78541;SHT31;67835;51.968;5.646;2023-06-04T14:34:02;33.8;19.1
78541;SHT31;67835;51.968;5.646;2023-06-04T14:36:33;33.7;19.0
78541;SHT31;67835;51.968;5.646;2023-06-04T14:39:02;33.6;20.0
78541;SHT31;67835;51.968;5.646;2023-06-04T14:41:30;33.5;20.4
78541;SHT31;67835;51.968;5.646;2023-06-04T14:44:00;33.5;19.8
78541;SHT31;67835;51.968;5.646;2023-06-04T14:46:28;33.5;19.2
78541;SHT31;67835;51.968;5.646;2023-06-04T14:48:56;33.5;19.4
78541;SHT31;67835;51.968;5.646;2023-06-04T14:51:25;33.5;19.6
78541;SHT31;67835;51.968;5.646;2023-06-04T14:53:53;33.5;19.9
78541;SHT31;67835;51.968;5.646;2023-06-04T14:56:22;33.5;20.7
78541;SHT31;67835;51.968;5.646;2023-06-04T14:58:52;33.5;20.6
78541;SHT31;67835;51.968;5.646;2023-06-04T15:01:20;33.6;20.3
78541;SHT31;67835;51.968;5.646;2023-06-04T15:03:50;33.6;20.7
78541;SHT31;67835;51.968;5.646;2023-06-04T15:06:19;33.6;19.8
78541;SHT31;67835;51.968;5.646;2023-06-04T15:08:48;33.6;20.0
78541;SHT31;67835;51.968;5.646;2023-06-04T15:11:16;33.6;19.3
78541;SHT31;67835;51.968;5.646;2023-06-04T15:13:45;33.6;19.0
78541;SHT31;67835;51.968;5.646;2023-06-04T15:16:14;33.6;20.5
78541;SHT31;67835;51.968;5.646;2023-06-04T15:18:42;33.6;19.9
78541;SHT31;67835;51.968;5.646;2023-06-04T15:21:11;33.6;20.4
78541;SHT31;67835;51.968;5.646;2023-06-04T15:23:40;33.6;19.9
78541;SHT31;67835;51.968;5.646;2023-06-04T15:26:10;33.5;20.1
78541;SHT31;67835;51.968;5.646;2023-06-04T15:28:39;33.5;19.9
78541;SHT31;67835;51.968;5.646;2023-06-04T15:31:10;33.5;19.5
78541;SHT31;67835;51.968;5.646;2023-06-04T15:33:39;33.5;19.4
78541;SHT31;67835;51.968;5.646;2023-06-04T15:36:08;33.4;19.7
78541;SHT31;67835;51.968;5.646;2023-06-04T15:38:36;33.4;19.4
78541;SHT31;67835;51.968;5.646;2023-06-04T15:41:05;33.4;20.1
78541;SHT31;67835;51.968;5.646;2023-06-04T15:43:36;33.3;19.8
78541;SHT31;67835;51.968;5.646;2023-06-04T15:46:04;33.3;20.1
78541;SHT31;67835;51.968;5.646;2023-06-04T15:48:33;33.2;20.4
78541;SHT31;67835;51.968;5.646;2023-06-04T15:51:01;33.2;20.3
78541;SHT31;67835;51.968;5.646;2023-06-04T15:53:29;33.2;20.3
78541;SHT31;67835;51.968;5.646;2023-06-04T15:55:58;33.2;20.0
78541;SHT31;67835;51.968;5.646;2023-06-04T15:58:27;33.1;20.4
78541;SHT31;67835;51.968;5.646;2023-06-04T16:00:56;33.1;19.9
78541;SHT31;67835;51.968;5.646;2023-06-04T16:03:24;33.0;20.7
78541;SHT31;67835;51.968;5.646;2023-06-04T16:05:53;32.9;20.0
78541;SHT31;67835;51.968;5.646;2023-06-04T16:08:21;32.8;20.5
78541;SHT31;67835;51.968;5.646;2023-06-04T16:10:50;32.6;21.2
78541;SHT31;67835;51.968;5.646;2023-06-04T16:13:19;32.5;21.7
78541;SHT31;67835;51.968;5.646;2023-06-04T16:15:47;32.3;21.8
78541;SHT31;67835;51.968;5.646;2023-06-04T16:18:16;32.2;20.7